Time;durP1;ratioP1;P1;durP2;ratioP2;P2;SDS_P1;SDS_P2;PMS_P1;PMS_P2;Temp;Humidity;BMP_temperature;BMP_pressure;BME280_temperature;BME280_humidity;BME280_pressure;Samples;Min_cycle;Max_cycle;Signal;HPM_P1;HPM_P2
2022/12/25 16:12:34;;;;;;;12.03;4.80;;;;;;;7.28;100.00;100863.53;5046694;27;97791;-84
2022/12/25 16:15:00;;;;;;;12.43;6.50;;;;;;;7.81;100.00;100860.91;5071813;27;96927;-84
2022/12/25 16:17:25;;;;;;;17.90;7.53;;;;;;;8.26;100.00;100859.81;5049732;27;99900;-84
2022/12/25 16:19:50;;;;;;;15.70;7.50;;;;;;;8.62;100.00;100864.94;5074807;27;98927;-84
2022/12/25 16:22:24;;;;;;;23.50;9.13;;;;;;;8.91;100.00;100862.16;5067586;27;97154;-84
2022/12/25 16:24:50;;;;;;;16.90;9.00;;;;;;;9.16;100.00;100841.59;5069885;27;97192;-84
2022/12/25 16:27:16;;;;;;;20.43;10.50;;;;;;;9.30;100.00;100840.03;5090459;27;99006;-85
2022/12/25 16:29:42;;;;;;;21.47;10.70;;;;;;;9.48;100.00;100875.47;5089686;27;98842;-85
2022/12/25 16:32:09;;;;;;;30.87;11.50;;;;;;;9.60;100.00;100861.41;5033856;27;100384;-85
2022/12/25 16:34:34;;;;;;;36.13;11.33;;;;;;;9.70;99.62;100851.78;5056988;27;96944;-84
2022/12/25 16:37:00;;;;;;;29.97;12.83;;;;;;;9.77;98.55;100829.41;5073556;27;99317;-85
2022/12/25 16:39:25;;;;;;;28.70;12.87;;;;;;;9.84;97.95;100836.47;5075745;27;97886;-84
2022/12/25 16:41:50;;;;;;;26.00;11.23;;;;;;;9.93;97.28;100836.31;5084222;27;96576;-85
2022/12/25 16:44:16;;;;;;;35.17;13.10;;;;;;;9.97;96.66;100825.88;5064725;27;97052;-85
2022/12/25 16:46:41;;;;;;;32.83;12.97;;;;;;;10.05;96.13;100831.69;5074237;27;97177;-85
2022/12/25 16:49:07;;;;;;;32.13;12.77;;;;;;;10.10;95.40;100833.75;5071406;27;97100;-85
2022/12/25 16:51:33;;;;;;;35.43;13.17;;;;;;;10.16;95.06;100821.59;5072255;27;97447;-85
2022/12/25 16:53:58;;;;;;;28.83;11.73;;;;;;;10.19;94.14;100804.16;5073039;27;97175;-84
2022/12/25 16:56:27;;;;;;;35.77;13.90;;;;;;;10.21;93.83;100812.66;5076179;27;97093;-83
2022/12/25 16:58:55;;;;;;;38.73;12.77;;;;;;;10.22;93.31;100802.41;5066244;27;97326;-85
2022/12/25 17:01:21;;;;;;;35.83;13.20;;;;;;;10.29;93.06;100801.97;5076946;27;97224;-84
2022/12/25 17:03:47;;;;;;;63.20;13.80;;;;;;;10.33;93.01;100791.53;5078207;27;97102;-85
2022/12/25 17:06:27;;;;;;;48.87;13.70;;;;;;;10.35;92.45;100786.28;5067569;27;99528;-86
2022/12/25 17:08:56;;;;;;;27.63;11.20;;;;;;;10.35;91.82;100795.28;5055062;27;100628;-84
2022/12/25 17:11:28;;;;;;;28.70;12.20;;;;;;;10.39;91.89;100795.84;5059533;27;96637;-86
2022/12/25 17:13:54;;;;;;;43.30;13.97;;;;;;;10.41;91.69;100774.09;5057784;27;97021;-86
2022/12/25 17:16:23;;;;;;;30.90;12.47;;;;;;;10.44;91.17;100761.38;5042769;27;100127;-83
2022/12/25 17:18:55;;;;;;;35.43;11.67;;;;;;;10.47;91.21;100755.63;5072537;27;106300;-85
2022/12/25 17:21:27;;;;;;;31.57;12.03;;;;;;;10.50;90.99;100751.91;5072584;27;97100;-84
2022/12/25 17:23:54;;;;;;;27.80;11.83;;;;;;;10.49;90.38;100757.88;5064459;27;97233;-85
2022/12/25 17:26:19;;;;;;;32.00;11.97;;;;;;;10.53;90.47;100758.41;5059949;27;99224;-86
2022/12/25 17:28:45;;;;;;;33.97;11.83;;;;;;;10.54;90.33;100751.69;5075958;27;99672;-85
2022/12/25 17:31:12;;;;;;;34.60;12.20;;;;;;;10.59;90.07;100744.72;5032279;27;96731;-84
2022/12/25 17:33:39;;;;;;;31.70;12.17;;;;;;;10.64;89.78;100755.00;5046318;27;96929;-84
2022/12/25 17:36:07;;;;;;;27.23;11.30;;;;;;;10.65;89.68;100748.25;5047847;27;100428;-86
2022/12/25 17:38:32;;;;;;;28.30;11.83;;;;;;;10.61;89.18;100802.75;5042964;27;104318;-85
2022/12/25 17:40:59;;;;;;;29.77;10.63;;;;;;;10.68;89.34;100741.78;5052532;27;97025;-85
2022/12/25 17:43:25;;;;;;;27.40;11.07;;;;;;;10.69;89.05;100757.78;5056720;27;96977;-84
2022/12/25 17:45:50;;;;;;;31.90;10.80;;;;;;;10.67;88.80;100762.28;5051325;27;99231;-86
2022/12/25 17:48:16;;;;;;;27.97;11.80;;;;;;;10.74;88.76;100731.56;5055772;27;99398;-85
2022/12/25 17:50:41;;;;;;;44.70;11.97;;;;;;;10.78;88.48;100729.31;5060543;27;97047;-84
2022/12/25 17:53:07;;;;;;;28.30;11.93;;;;;;;10.79;88.21;100731.56;5060539;27;96904;-85
2022/12/25 17:55:36;;;;;;;32.17;10.60;;;;;;;10.80;88.16;100740.59;5062853;27;97013;-86
2022/12/25 17:58:02;;;;;;;27.07;10.83;;;;;;;10.79;88.02;100772.13;5058266;27;100457;-85
2022/12/25 18:00:27;;;;;;;38.90;10.50;;;;;;;10.84;87.98;100735.59;5050968;27;97220;-85
2022/12/25 18:02:53;;;;;;;20.70;9.87;;;;;;;10.85;87.71;100704.09;5057553;27;97137;-86
2022/12/25 18:05:18;;;;;;;21.60;10.03;;;;;;;10.86;87.84;100694.59;5056297;27;99442;-85
2022/12/25 18:07:43;;;;;;;27.80;10.00;;;;;;;10.87;87.48;100705.13;5048990;27;96974;-85
2022/12/25 18:10:09;;;;;;;24.13;10.90;;;;;;;10.92;87.24;100706.41;5067243;27;96808;-85
2022/12/25 18:12:35;;;;;;;31.00;10.70;;;;;;;10.92;87.35;100706.41;5056735;27;97756;-86
2022/12/25 18:15:01;;;;;;;23.40;10.80;;;;;;;10.95;87.24;100697.13;5049779;27;99827;-86
2022/12/25 18:17:27;;;;;;;37.00;12.03;;;;;;;10.95;87.10;100699.88;5051038;27;96815;-85
2022/12/25 18:19:53;;;;;;;35.43;11.53;;;;;;;10.98;87.38;100699.66;5058388;27;96995;-85
2022/12/25 18:22:19;;;;;;;30.07;11.83;;;;;;;11.00;86.97;100688.16;5051306;27;96848;-85
2022/12/25 18:24:44;;;;;;;24.57;10.50;;;;;;;11.00;86.93;100715.69;5045076;27;100541;-85
2022/12/25 18:27:10;;;;;;;30.30;12.10;;;;;;;11.03;86.86;100695.44;5081099;27;99251;-85
2022/12/25 18:29:35;;;;;;;32.23;12.80;;;;;;;11.05;86.66;100692.94;5037151;27;97091;-85
2022/12/25 18:32:00;;;;;;;33.77;13.43;;;;;;;11.05;86.64;100692.94;5052608;27;97307;-85
2022/12/25 18:34:26;;;;;;;26.40;12.63;;;;;;;11.07;86.69;100669.16;5044869;27;98744;-85
2022/12/25 18:36:51;;;;;;;29.83;13.00;;;;;;;11.08;86.44;100678.16;5053277;27;97642;-85
2022/12/25 18:39:17;;;;;;;34.23;14.33;;;;;;;11.12;86.41;100659.41;5070115;27;97168;-85
2022/12/25 18:44:28;;;;;;;31.10;13.20;;;;;;;11.16;86.29;100670.97;5065181;27;101476;-85
2022/12/25 18:46:53;;;;;;;33.43;14.57;;;;;;;11.17;86.31;100659.44;5064600;27;104457;-86
2022/12/25 18:49:19;;;;;;;39.00;14.17;;;;;;;11.13;86.16;100656.19;5061308;27;97752;-85
2022/12/25 18:51:44;;;;;;;32.67;13.87;;;;;;;11.20;85.91;100652.94;5062932;27;97446;-85
2022/12/25 18:54:09;;;;;;;38.87;16.10;;;;;;;11.24;85.79;100691.25;5048990;27;99397;-84
2022/12/25 18:56:35;;;;;;;41.23;16.07;;;;;;;11.26;85.92;100661.22;5044706;27;98637;-85
2022/12/25 18:59:00;;;;;;;32.37;15.37;;;;;;;11.29;85.51;100665.75;5049311;27;96686;-85
2022/12/25 19:01:26;;;;;;;33.27;15.13;;;;;;;11.31;85.68;100671.50;5045194;27;97510;-85
2022/12/25 19:03:52;;;;;;;39.10;16.07;;;;;;;11.34;85.36;100653.97;5030361;27;99207;-87
2022/12/25 19:06:23;;;;;;;33.40;14.00;;;;;;;11.35;85.32;100671.25;5049721;27;100377;-86
2022/12/25 19:08:49;;;;;;;34.63;13.77;;;;;;;11.36;85.33;100656.25;5061168;27;96613;-86
2022/12/25 19:11:15;;;;;;;36.60;15.20;;;;;;;11.36;85.22;100651.47;5069750;27;96818;-86
2022/12/25 19:13:41;;;;;;;68.07;16.40;;;;;;;11.40;85.04;100651.97;5068604;27;100356;-86
2022/12/25 19:16:07;;;;;;;31.33;14.47;;;;;;;11.40;85.01;100660.25;5061018;27;99640;-85
2022/12/25 19:18:32;;;;;;;43.33;14.37;;;;;;;11.39;84.93;100639.47;5051807;27;97043;-83
2022/12/25 19:21:06;;;;;;;48.80;16.07;;;;;;;11.42;84.79;100637.72;5046652;27;97681;-85
2022/12/25 19:23:32;;;;;;;29.77;14.00;;;;;;;11.42;84.69;100632.22;5036797;27;103425;-83
2022/12/25 19:25:58;;;;;;;38.57;13.07;;;;;;;11.40;84.60;100629.22;5044668;27;98101;-86
2022/12/25 19:28:24;;;;;;;33.80;14.10;;;;;;;11.39;84.48;100631.22;5045161;27;97372;-86
2022/12/25 19:30:51;;;;;;;30.57;13.53;;;;;;;11.38;84.42;100621.44;5046211;27;97169;-86
2022/12/25 19:33:17;;;;;;;53.80;14.93;;;;;;;11.33;84.38;100622.91;5046665;27;99518;-85
2022/12/25 19:35:43;;;;;;;40.37;14.40;;;;;;;11.36;84.31;100636.97;5049072;27;99356;-86
2022/12/25 19:38:08;;;;;;;52.43;17.20;;;;;;;11.31;84.17;100652.22;5049163;27;96527;-85
2022/12/25 19:40:37;;;;;;;35.43;16.60;;;;;;;11.40;84.23;100618.19;5048796;27;97293;-84
2022/12/25 19:43:04;;;;;;;34.63;16.33;;;;;;;11.42;84.28;100618.44;5035341;27;100156;-86
2022/12/25 19:45:29;;;;;;;34.50;16.57;;;;;;;11.36;84.10;100640.44;5028790;27;98946;-85
2022/12/25 19:47:56;;;;;;;35.30;16.37;;;;;;;11.39;84.17;100617.44;5044565;27;97071;-86
2022/12/25 19:50:27;;;;;;;36.10;14.87;;;;;;;11.42;84.37;100621.97;5041194;27;96923;-87
2022/12/25 19:52:54;;;;;;;41.17;15.87;;;;;;;11.45;84.19;100626.44;5048245;27;100122;-86
2022/12/25 19:55:20;;;;;;;34.17;15.50;;;;;;;11.45;84.25;100623.69;5047665;27;99961;-86
2022/12/25 19:57:47;;;;;;;36.27;15.43;;;;;;;11.50;84.10;100614.69;5042377;27;97738;-86
2022/12/25 20:00:12;;;;;;;33.80;15.47;;;;;;;11.52;84.19;100622.44;5015463;27;97527;-84
2022/12/25 20:02:38;;;;;;;51.53;15.40;;;;;;;11.57;84.13;100624.47;5046320;27;96871;-85
2022/12/25 20:05:03;;;;;;;36.30;16.10;;;;;;;11.56;83.87;100615.44;5043717;27;97017;-86
2022/12/25 20:07:29;;;;;;;42.20;17.57;;;;;;;11.58;83.97;100626.72;5051497;27;99496;-86
2022/12/25 20:09:54;;;;;;;40.43;18.27;;;;;;;11.60;83.75;100609.72;5045313;27;98613;-86
2022/12/25 20:12:19;;;;;;;50.50;23.23;;;;;;;11.60;83.76;100607.69;5041569;27;100423;-85
2022/12/25 20:14:45;;;;;;;57.93;21.50;;;;;;;11.60;83.62;100615.22;5078414;27;100654;-85
2022/12/25 20:20:28;;;;;;;72.00;18.47;;;;;;;11.65;83.58;100612.44;4993358;28;98768;-53
2022/12/25 20:22:54;;;;;;;26.50;14.80;;;;;;;11.65;83.49;100622.72;4999979;28;97444;-53
2022/12/25 20:25:19;;;;;;;26.57;14.23;;;;;;;11.67;83.51;100614.72;5000334;27;97729;-53
2022/12/25 20:27:45;;;;;;;37.50;15.10;;;;;;;11.68;83.35;100619.75;4998531;27;97325;-53
2022/12/25 20:30:11;;;;;;;35.57;15.80;;;;;;;11.71;83.55;100617.97;4991326;28;96907;-57
2022/12/25 20:32:36;;;;;;;62.90;16.10;;;;;;;11.72;83.56;100617.50;4998404;27;96829;-56
2022/12/25 20:35:03;;;;;;;55.57;15.90;;;;;;;11.73;83.40;100616.22;4995637;27;97064;-53
2022/12/25 20:37:29;;;;;;;52.37;14.37;;;;;;;11.76;83.18;100615.25;4991389;28;96797;-53
2022/12/25 20:39:54;;;;;;;27.87;12.90;;;;;;;11.75;83.16;100608.22;4997429;27;97042;-53
2022/12/25 20:42:19;;;;;;;24.00;12.40;;;;;;;11.73;83.40;100610.72;4996752;27;97249;-53
2022/12/25 20:44:45;;;;;;;25.80;12.87;;;;;;;11.74;83.15;100609.47;4991382;27;97151;-53
2022/12/25 20:47:10;;;;;;;36.73;12.83;;;;;;;11.74;83.17;100608.72;5001565;28;96738;-53
2022/12/25 20:49:36;;;;;;;27.60;13.23;;;;;;;11.74;83.21;100609.47;4991670;28;97386;-54
2022/12/25 20:52:01;;;;;;;32.43;15.00;;;;;;;11.76;83.07;100615.25;4999338;28;97402;-54
2022/12/25 20:54:26;;;;;;;31.70;17.00;;;;;;;11.77;83.03;100613.25;4991551;27;97200;-54
2022/12/25 20:56:52;;;;;;;48.67;20.10;;;;;;;11.76;82.93;100618.00;5000086;27;97174;-53
2022/12/25 20:59:17;;;;;;;43.03;20.93;;;;;;;11.76;83.13;100618.00;5000757;27;100178;-55
2022/12/25 21:01:42;;;;;;;33.33;18.07;;;;;;;11.73;83.00;100621.75;5002964;27;97340;-54
2022/12/25 21:04:08;;;;;;;40.93;15.87;;;;;;;11.79;82.91;100619.00;5002909;27;98458;-53
2022/12/25 21:06:33;;;;;;;37.10;19.33;;;;;;;11.78;83.11;100626.50;5000066;27;96797;-54
2022/12/25 21:08:59;;;;;;;39.33;20.17;;;;;;;11.81;83.12;100628.28;5003534;27;97349;-54
2022/12/25 21:11:25;;;;;;;36.47;18.90;;;;;;;11.84;82.91;100632.03;5005422;27;97263;-53
2022/12/25 21:13:50;;;;;;;33.40;17.17;;;;;;;11.84;82.89;100637.53;4999082;27;97390;-53
2022/12/25 21:16:19;;;;;;;28.73;15.20;;;;;;;11.86;83.04;100630.28;5001454;27;97446;-54
2022/12/25 21:18:45;;;;;;;35.67;15.57;;;;;;;11.89;83.05;100645.81;5002081;28;102574;-53
2022/12/25 21:21:11;;;;;;;29.40;13.93;;;;;;;11.92;83.13;100642.06;4976884;27;101307;-53
2022/12/25 21:23:38;;;;;;;31.97;14.10;;;;;;;11.95;83.05;100645.81;4963235;27;97715;-54
2022/12/25 21:26:19;;;;;;;35.80;14.30;;;;;;;12.00;83.06;100647.81;4975104;28;99603;-54
2022/12/25 21:28:46;;;;;;;39.47;15.80;;;;;;;12.02;83.18;100639.78;4978866;28;96978;-53
2022/12/25 21:31:12;;;;;;;41.23;15.70;;;;;;;12.03;83.04;100649.56;4980318;27;97364;-53
2022/12/25 21:33:53;;;;;;;39.63;17.57;;;;;;;12.03;82.89;100635.78;4971742;27;97506;-55
2022/12/25 21:36:26;;;;;;;29.67;16.67;;;;;;;12.02;82.62;100639.78;4975517;27;97007;-54
2022/12/25 21:39:03;;;;;;;36.30;15.67;;;;;;;12.02;82.85;100650.81;5010450;27;97083;-55
2022/12/25 21:41:30;;;;;;;33.77;14.70;;;;;;;12.03;82.93;100655.81;5000382;27;104035;-53
2022/12/25 21:43:56;;;;;;;31.33;14.93;;;;;;;12.04;82.88;100649.06;5002650;27;97232;-56
2022/12/25 21:46:22;;;;;;;29.93;13.03;;;;;;;12.07;82.99;100641.03;5003487;27;96938;-53
2022/12/25 21:48:48;;;;;;;36.20;13.50;;;;;;;12.07;82.73;100625.25;5003153;27;96898;-54
2022/12/25 21:54:02;;;;;;;19.40;11.20;;;;;;;12.12;82.91;100632.03;4984652;28;101306;-53
2022/12/25 21:56:29;;;;;;;21.10;10.50;;;;;;;12.14;82.88;100641.31;5001150;27;97518;-53
2022/12/25 21:58:57;;;;;;;25.77;11.47;;;;;;;12.15;82.80;100645.53;5001117;27;96950;-53
2022/12/25 22:01:22;;;;;;;23.00;10.50;;;;;;;12.18;82.67;100643.78;5005314;27;98163;-53
2022/12/25 22:03:47;;;;;;;27.07;10.60;;;;;;;12.20;82.80;100638.53;5001547;27;97087;-53
2022/12/25 22:08:57;;;;;;;22.33;10.27;;;;;;;12.21;82.45;100638.00;4989838;28;103887;-52
2022/12/25 22:19:49;;;;;;;22.93;10.47;;;;;;;12.18;82.49;100625.25;4998057;27;97030;-55
2022/12/25 22:22:19;;;;;;;19.63;9.33;;;;;;;12.18;82.49;100630.75;4998008;28;96856;-52
2022/12/25 22:24:56;;;;;;;23.03;10.67;;;;;;;12.20;82.42;100633.75;5000397;28;97501;-52
2022/12/25 22:27:22;;;;;;;19.97;9.07;;;;;;;12.21;82.58;100637.28;5001536;28;97280;-52
2022/12/25 22:29:48;;;;;;;20.93;9.20;;;;;;;12.22;82.34;100641.53;5000790;27;97430;-53
2022/12/25 22:32:14;;;;;;;22.43;9.70;;;;;;;12.24;82.45;100645.28;5002542;27;97013;-53
2022/12/25 22:34:40;;;;;;;18.97;9.43;;;;;;;12.25;82.35;100654.31;4999100;27;97186;-52
2022/12/25 22:37:07;;;;;;;22.43;9.40;;;;;;;12.23;82.13;100660.31;5003086;27;97602;-53
2022/12/25 22:39:34;;;;;;;19.97;8.93;;;;;;;12.24;82.43;100658.31;5005298;27;96899;-53
2022/12/25 22:42:00;;;;;;;22.57;10.03;;;;;;;12.25;82.27;100671.63;5000882;27;97340;-52
2022/12/25 22:44:28;;;;;;;21.10;9.63;;;;;;;12.25;82.28;100670.88;4984117;27;97853;-52
2022/12/25 22:46:54;;;;;;;18.60;8.70;;;;;;;12.24;82.21;100664.59;5004105;27;97158;-52
2022/12/25 22:49:19;;;;;;;23.10;9.47;;;;;;;12.26;82.06;100670.38;4984308;27;96921;-52
2022/12/25 22:51:47;;;;;;;24.23;10.00;;;;;;;12.27;82.20;100671.13;4983316;27;98030;-54
2022/12/25 22:54:15;;;;;;;22.20;8.97;;;;;;;12.26;82.20;100681.41;5000841;27;97331;-54
2022/12/25 22:56:42;;;;;;;22.87;9.50;;;;;;;12.26;82.08;100686.16;4986194;28;97095;-53
2022/12/25 22:59:07;;;;;;;19.90;9.20;;;;;;;12.26;82.16;100684.16;5003225;27;97609;-53
2022/12/25 23:01:33;;;;;;;26.10;10.83;;;;;;;12.28;82.18;100680.88;4997172;27;98042;-54
2022/12/25 23:03:58;;;;;;;18.80;8.43;;;;;;;12.27;81.98;100673.88;4996739;27;97583;-53
2022/12/25 23:06:23;;;;;;;22.23;9.10;;;;;;;12.27;81.83;100682.16;5003679;28;97255;-53
2022/12/25 23:08:49;;;;;;;23.27;9.97;;;;;;;12.27;81.84;100684.91;4980448;28;96935;-54
2022/12/25 23:11:15;;;;;;;24.23;9.70;;;;;;;12.26;82.02;100686.91;5001955;27;97399;-54
2022/12/25 23:16:25;;;;;;;23.47;9.63;;;;;;;12.27;81.86;100666.38;4999021;27;97151;-53
2022/12/25 23:27:03;;;;;;;23.37;9.10;;;;;;;12.27;81.80;100666.38;5000028;28;97214;-54
2022/12/25 23:29:34;;;;;;;22.67;9.53;;;;;;;12.28;81.82;100656.81;4999379;28;97186;-53
2022/12/25 23:32:01;;;;;;;21.33;9.70;;;;;;;12.27;81.65;100649.06;4996167;27;97068;-52
2022/12/25 23:34:26;;;;;;;21.97;9.87;;;;;;;12.26;81.57;100661.31;4998294;27;96872;-54
2022/12/25 23:36:52;;;;;;;24.73;8.80;;;;;;;12.27;81.88;100665.59;5001308;28;97412;-52
2022/12/25 23:39:17;;;;;;;19.83;9.37;;;;;;;12.27;81.75;100666.38;5000561;28;97502;-52
2022/12/25 23:41:43;;;;;;;23.93;8.80;;;;;;;12.28;81.58;100673.38;5001083;28;97264;-54
2022/12/25 23:44:10;;;;;;;21.27;9.50;;;;;;;12.27;81.51;100677.41;4997216;27;96838;-54
2022/12/25 23:46:36;;;;;;;24.87;9.43;;;;;;;12.28;81.54;100672.59;4998195;27;97341;-52
2022/12/25 23:49:02;;;;;;;20.27;8.70;;;;;;;12.28;81.37;100680.88;5004111;27;97425;-53
2022/12/25 23:51:27;;;;;;;27.90;9.17;;;;;;;12.27;81.41;100671.88;5000787;27;98112;-52
2022/12/25 23:53:53;;;;;;;20.17;8.30;;;;;;;12.27;81.30;100671.88;5000424;27;97844;-52
2022/12/25 23:56:18;;;;;;;20.40;8.20;;;;;;;12.27;81.18;100665.59;4998956;28;96995;-53
2022/12/25 23:58:50;;;;;;;20.33;8.10;;;;;;;12.27;81.37;100679.41;4997425;27;96949;-53
